Jamestown, ND

6:36 AM CDT on September 03, 2015 (GMT -0500)
Leapaldt Addition | | Change Station
CLOSE
Current Station
Personal Weather Station
Location: Jamestown, ND
Elevation: 1486 ft
Nearby Weather Stations
Active Advisory: Special Statement Active Notice: Record Report

Elev 1486 ft 46.93 °N, 98.69 °W | Updated 11 minutes ago

Overcast
Overcast
72.7 °F
Feels Like 72.7 °F
N
7.3
Wind Variable Wind from ESE

Today
High -- | Low -- °F
--% Chance of Precip.
Yesterday
High -- | Low -- °F
Precip. -- in
6:56 AM 8:10 PM
Waning Gibbous, 71% visible
Pressure 29.72 in
Visibility 4.0 miles
Clouds Overcast 500 ft
Dew Point 72 °F
Humidity 99%
Rainfall 0.00 in
Snow Depth Not available.
UV 0 out of 12
Pollen 11.70 out of 12
Air Quality Not available.
Flu Activity Not available.
METAR KJMS 031056Z AUTO 14010G19KT 4SM BR OVC005 23/22 A2975 RMK AO2 SLP062 T02280217
Pressure 29.72 in
Visibility 4.0 miles
Clouds Overcast 500 ft
Dew Point 72 °F
Humidity 99%
Rainfall 0.00 in
Snow Depth Not available.
UV 0 out of 12
Pollen 11.70 out of 12
Air Quality Not available.
Flu Activity Not available.
METAR KJMS 031056Z AUTO 14010G19KT 4SM BR OVC005 23/22 A2975 RMK AO2 SLP062 T02280217

10-Day Weather Forecast

×

Almanac

Astronomy

Sep. 03, 2015 Rise Set
Actual Time
Civil Twilight
Nautical Twilight
Astronomical Twilight
Moon
Length of Visible Light
Length of Day
Tomorrow will be .
, % of the Moon is Illuminated

Today's Extremes

State Highs State Lows

Community

WunderPhotos

Upload Photos

1,851,933 photos uploaded!

WunderBlogs® & News

Nearby

Air Quality

  Air Quality AQ Index Pollutant
Not available.

Snow Depth

Station Depth Elevation

Earthquake Activity

City Distance Mag. Time & Date
Minimum magnitude displayed is 2.5.

Coastal Water Temperatures

Place Temperature

Stations

Nearby Weather Stations

Station Location Temp. Windchill Dew Point Humidity Wind Precip. Elev Updated Type
                   
Special Statement
Statement as of 5:12 AM MDT on September 03, 2015

Areas of fog developing over central into portions of western
North Dakota may reduce visibility down to one-quarter mile at
times early this morning. Travelers are urged to use caution and
be alert for rapidly deteriorating visibility. The fog is expected
to dissipate by mid-morning.


Jjs/zh

612 am CDT Thu Sep 3 2015 /512 am MDT Thu Sep 3 2015/

Areas of fog developing over central into portions of western
North Dakota may reduce visibility down to one-quarter mile at
times early this morning. Travelers are urged to use caution and
be alert for rapidly deteriorating visibility. The fog is expected
to dissipate by mid-morning.


Jjs/zh